sensor_id;sensor_type;location;lat;lon;timestamp;temperature;humidity
14057;DHT22;7103;54.300;10.180;2024-01-27T00:02:24;5.90;46.10
14057;DHT22;7103;54.300;10.180;2024-01-27T00:04:51;5.90;56.10
14057;DHT22;7103;54.300;10.180;2024-01-27T00:07:18;6.00;66.00
14057;DHT22;7103;54.300;10.180;2024-01-27T00:09:45;6.00;57.70
14057;DHT22;7103;54.300;10.180;2024-01-27T00:12:11;6.00;53.70
14057;DHT22;7103;54.300;10.180;2024-01-27T00:14:39;6.00;61.30
14057;DHT22;7103;54.300;10.180;2024-01-27T00:17:06;6.10;62.30
14057;DHT22;7103;54.300;10.180;2024-01-27T00:19:33;6.00;54.00
14057;DHT22;7103;54.300;10.180;2024-01-27T00:22:04;6.00;60.90
14057;DHT22;7103;54.300;10.180;2024-01-27T00:24:31;6.00;62.10
14057;DHT22;7103;54.300;10.180;2024-01-27T00:26:58;6.00;69.80
14057;DHT22;7103;54.300;10.180;2024-01-27T00:29:25;6.00;72.20
14057;DHT22;7103;54.300;10.180;2024-01-27T00:31:52;6.00;74.00
14057;DHT22;7103;54.300;10.180;2024-01-27T00:34:21;6.10;75.90
14057;DHT22;7103;54.300;10.180;2024-01-27T00:36:48;6.00;72.50
14057;DHT22;7103;54.300;10.180;2024-01-27T00:39:16;5.90;66.60
14057;DHT22;7103;54.300;10.180;2024-01-27T00:41:44;5.90;75.80
14057;DHT22;7103;54.300;10.180;2024-01-27T00:44:11;5.80;78.10
14057;DHT22;7103;54.300;10.180;2024-01-27T00:46:38;5.80;91.00
14057;DHT22;7103;54.300;10.180;2024-01-27T00:49:05;5.80;95.20
14057;DHT22;7103;54.300;10.180;2024-01-27T00:51:32;5.80;99.90
14057;DHT22;7103;54.300;10.180;2024-01-27T00:53:59;5.80;97.10
14057;DHT22;7103;54.300;10.180;2024-01-27T00:56:26;5.80;99.90
14057;DHT22;7103;54.300;10.180;2024-01-27T00:58:53;5.70;99.90
14057;DHT22;7103;54.300;10.180;2024-01-27T01:01:20;5.70;99.90
14057;DHT22;7103;54.300;10.180;2024-01-27T01:03:47;5.70;99.90
14057;DHT22;7103;54.300;10.180;2024-01-27T01:06:14;5.70;99.90
14057;DHT22;7103;54.300;10.180;2024-01-27T01:08:42;5.70;99.90
14057;DHT22;7103;54.300;10.180;2024-01-27T01:11:08;5.70;99.90
14057;DHT22;7103;54.300;10.180;2024-01-27T01:13:36;5.70;99.90
14057;DHT22;7103;54.300;10.180;2024-01-27T01:16:03;5.60;99.90
14057;DHT22;7103;54.300;10.180;2024-01-27T01:18:30;5.70;99.90
14057;DHT22;7103;54.300;10.180;2024-01-27T01:20:57;5.70;99.90
14057;DHT22;7103;54.300;10.180;2024-01-27T01:23:24;5.70;99.90
14057;DHT22;7103;54.300;10.180;2024-01-27T01:25:51;5.60;99.90
14057;DHT22;7103;54.300;10.180;2024-01-27T01:28:18;5.60;99.90
14057;DHT22;7103;54.300;10.180;2024-01-27T01:30:45;5.50;99.90
14057;DHT22;7103;54.300;10.180;2024-01-27T01:33:12;5.60;99.90
14057;DHT22;7103;54.300;10.180;2024-01-27T01:35:39;5.60;99.90
14057;DHT22;7103;54.300;10.180;2024-01-27T01:38:06;5.60;99.90
14057;DHT22;7103;54.300;10.180;2024-01-27T01:40:33;5.60;99.90
14057;DHT22;7103;54.300;10.180;2024-01-27T01:43:00;5.70;99.90
14057;DHT22;7103;54.300;10.180;2024-01-27T01:45:27;5.80;99.90
14057;DHT22;7103;54.300;10.180;2024-01-27T01:47:54;5.80;99.90
14057;DHT22;7103;54.300;10.180;2024-01-27T01:50:21;5.90;99.90
14057;DHT22;7103;54.300;10.180;2024-01-27T01:52:49;5.80;99.90
14057;DHT22;7103;54.300;10.180;2024-01-27T01:55:16;5.80;99.90
14057;DHT22;7103;54.300;10.180;2024-01-27T01:57:44;5.90;99.90
14057;DHT22;7103;54.300;10.180;2024-01-27T02:00:11;5.90;99.90
14057;DHT22;7103;54.300;10.180;2024-01-27T02:02:39;5.80;99.90
14057;DHT22;7103;54.300;10.180;2024-01-27T02:05:06;5.80;99.90
14057;DHT22;7103;54.300;10.180;2024-01-27T02:07:35;5.70;99.90
14057;DHT22;7103;54.300;10.180;2024-01-27T02:10:02;5.80;99.90
14057;DHT22;7103;54.300;10.180;2024-01-27T02:12:30;5.80;99.90
14057;DHT22;7103;54.300;10.180;2024-01-27T02:14:57;5.90;99.90
14057;DHT22;7103;54.300;10.180;2024-01-27T02:17:23;5.90;99.90
14057;DHT22;7103;54.300;10.180;2024-01-27T02:19:50;5.90;99.90
14057;DHT22;7103;54.300;10.180;2024-01-27T02:22:17;5.90;99.90
14057;DHT22;7103;54.300;10.180;2024-01-27T02:24:44;5.90;99.90
14057;DHT22;7103;54.300;10.180;2024-01-27T02:27:13;6.00;99.90
14057;DHT22;7103;54.300;10.180;2024-01-27T02:29:40;5.90;99.90
14057;DHT22;7103;54.300;10.180;2024-01-27T02:32:07;6.00;99.90
14057;DHT22;7103;54.300;10.180;2024-01-27T02:34:34;5.90;99.90
14057;DHT22;7103;54.300;10.180;2024-01-27T02:37:01;5.90;99.90
14057;DHT22;7103;54.300;10.180;2024-01-27T02:39:27;6.00;99.90
14057;DHT22;7103;54.300;10.180;2024-01-27T02:41:54;6.00;99.90
14057;DHT22;7103;54.300;10.180;2024-01-27T02:44:21;6.00;99.90
14057;DHT22;7103;54.300;10.180;2024-01-27T02:46:48;6.10;99.90
14057;DHT22;7103;54.300;10.180;2024-01-27T02:49:15;6.00;99.90
14057;DHT22;7103;54.300;10.180;2024-01-27T02:51:42;6.10;99.90
14057;DHT22;7103;54.300;10.180;2024-01-27T02:54:09;6.20;99.90
14057;DHT22;7103;54.300;10.180;2024-01-27T02:56:36;6.10;99.90
14057;DHT22;7103;54.300;10.180;2024-01-27T02:59:03;6.10;99.90
14057;DHT22;7103;54.300;10.180;2024-01-27T03:01:29;6.10;99.90
14057;DHT22;7103;54.300;10.180;2024-01-27T03:03:56;6.10;99.90
14057;DHT22;7103;54.300;10.180;2024-01-27T03:06:24;6.20;99.90
14057;DHT22;7103;54.300;10.180;2024-01-27T03:08:51;6.20;99.90
14057;DHT22;7103;54.300;10.180;2024-01-27T03:11:17;6.20;99.90
14057;DHT22;7103;54.300;10.180;2024-01-27T03:13:44;6.20;99.90
14057;DHT22;7103;54.300;10.180;2024-01-27T03:16:12;6.20;99.90
14057;DHT22;7103;54.300;10.180;2024-01-27T03:18:39;6.10;99.90
14057;DHT22;7103;54.300;10.180;2024-01-27T03:21:07;6.30;99.90
14057;DHT22;7103;54.300;10.180;2024-01-27T03:23:35;6.20;99.90
14057;DHT22;7103;54.300;10.180;2024-01-27T03:26:03;6.20;99.90
14057;DHT22;7103;54.300;10.180;2024-01-27T03:28:33;6.20;99.90
14057;DHT22;7103;54.300;10.180;2024-01-27T03:31:00;6.20;99.90
14057;DHT22;7103;54.300;10.180;2024-01-27T03:33:27;6.30;99.90
14057;DHT22;7103;54.300;10.180;2024-01-27T03:35:56;6.40;99.90
14057;DHT22;7103;54.300;10.180;2024-01-27T03:38:23;6.50;99.90
14057;DHT22;7103;54.300;10.180;2024-01-27T03:40:50;6.40;99.90
14057;DHT22;7103;54.300;10.180;2024-01-27T03:43:17;6.40;99.90
14057;DHT22;7103;54.300;10.180;2024-01-27T03:45:44;6.60;99.90
14057;DHT22;7103;54.300;10.180;2024-01-27T03:48:11;6.40;99.90
14057;DHT22;7103;54.300;10.180;2024-01-27T03:50:38;6.50;99.90
14057;DHT22;7103;54.300;10.180;2024-01-27T03:53:05;6.60;99.90
14057;DHT22;7103;54.300;10.180;2024-01-27T03:55:32;6.60;99.90
14057;DHT22;7103;54.300;10.180;2024-01-27T03:58:01;6.50;99.90
14057;DHT22;7103;54.300;10.180;2024-01-27T04:00:28;6.40;99.90
14057;DHT22;7103;54.300;10.180;2024-01-27T04:02:59;6.40;99.90
14057;DHT22;7103;54.300;10.180;2024-01-27T04:05:29;6.40;99.90
14057;DHT22;7103;54.300;10.180;2024-01-27T04:07:57;6.50;99.90
14057;DHT22;7103;54.300;10.180;2024-01-27T04:10:24;6.50;99.90
14057;DHT22;7103;54.300;10.180;2024-01-27T04:12:51;6.50;99.90
14057;DHT22;7103;54.300;10.180;2024-01-27T04:15:17;6.50;99.90
14057;DHT22;7103;54.300;10.180;2024-01-27T04:17:44;6.60;99.90
14057;DHT22;7103;54.300;10.180;2024-01-27T04:20:11;6.60;99.90
14057;DHT22;7103;54.300;10.180;2024-01-27T04:22:38;6.50;99.90
14057;DHT22;7103;54.300;10.180;2024-01-27T04:25:06;6.50;99.90
14057;DHT22;7103;54.300;10.180;2024-01-27T04:27:37;6.50;99.90
14057;DHT22;7103;54.300;10.180;2024-01-27T04:30:06;6.50;99.90
14057;DHT22;7103;54.300;10.180;2024-01-27T04:32:33;6.50;99.90
14057;DHT22;7103;54.300;10.180;2024-01-27T04:35:00;6.40;99.90
14057;DHT22;7103;54.300;10.180;2024-01-27T04:37:27;6.40;99.90
14057;DHT22;7103;54.300;10.180;2024-01-27T04:39:54;6.30;99.90
14057;DHT22;7103;54.300;10.180;2024-01-27T04:42:21;6.30;99.90
14057;DHT22;7103;54.300;10.180;2024-01-27T04:44:48;6.30;99.90
14057;DHT22;7103;54.300;10.180;2024-01-27T04:47:15;6.20;99.90
14057;DHT22;7103;54.300;10.180;2024-01-27T04:49:42;6.30;99.90
14057;DHT22;7103;54.300;10.180;2024-01-27T04:52:09;6.30;99.90
14057;DHT22;7103;54.300;10.180;2024-01-27T04:54:35;6.30;99.90
14057;DHT22;7103;54.300;10.180;2024-01-27T04:57:03;6.30;99.90
14057;DHT22;7103;54.300;10.180;2024-01-27T04:59:30;6.10;99.90
14057;DHT22;7103;54.300;10.180;2024-01-27T05:01:56;6.10;99.90
14057;DHT22;7103;54.300;10.180;2024-01-27T05:04:23;6.20;99.90
14057;DHT22;7103;54.300;10.180;2024-01-27T05:06:53;6.10;99.90
14057;DHT22;7103;54.300;10.180;2024-01-27T05:09:20;6.10;99.90
14057;DHT22;7103;54.300;10.180;2024-01-27T05:11:47;6.10;99.90
14057;DHT22;7103;54.300;10.180;2024-01-27T05:14:15;6.10;99.90
14057;DHT22;7103;54.300;10.180;2024-01-27T05:16:42;6.20;99.90
14057;DHT22;7103;54.300;10.180;2024-01-27T05:19:10;6.10;99.90
14057;DHT22;7103;54.300;10.180;2024-01-27T05:21:40;6.20;99.90
14057;DHT22;7103;54.300;10.180;2024-01-27T05:24:07;6.30;99.90
14057;DHT22;7103;54.300;10.180;2024-01-27T05:26:34;6.20;99.90
14057;DHT22;7103;54.300;10.180;2024-01-27T05:29:01;6.20;99.90
14057;DHT22;7103;54.300;10.180;2024-01-27T05:31:28;6.30;99.90
14057;DHT22;7103;54.300;10.180;2024-01-27T05:33:54;6.30;99.90
14057;DHT22;7103;54.300;10.180;2024-01-27T05:36:22;6.20;99.90
14057;DHT22;7103;54.300;10.180;2024-01-27T05:38:49;6.20;99.90
14057;DHT22;7103;54.300;10.180;2024-01-27T05:41:16;6.20;99.90
14057;DHT22;7103;54.300;10.180;2024-01-27T05:43:43;6.10;99.90
14057;DHT22;7103;54.300;10.180;2024-01-27T05:46:10;6.10;99.90
14057;DHT22;7103;54.300;10.180;2024-01-27T05:48:37;6.10;99.90
14057;DHT22;7103;54.300;10.180;2024-01-27T05:51:04;6.00;99.90
14057;DHT22;7103;54.300;10.180;2024-01-27T05:53:31;6.10;99.90
14057;DHT22;7103;54.300;10.180;2024-01-27T05:55:58;6.10;99.90
14057;DHT22;7103;54.300;10.180;2024-01-27T05:58:24;6.10;99.90
14057;DHT22;7103;54.300;10.180;2024-01-27T06:00:51;6.10;99.90
14057;DHT22;7103;54.300;10.180;2024-01-27T06:03:18;6.10;99.90
14057;DHT22;7103;54.300;10.180;2024-01-27T06:05:45;6.10;99.90
14057;DHT22;7103;54.300;10.180;2024-01-27T06:08:12;6.10;99.90
14057;DHT22;7103;54.300;10.180;2024-01-27T06:10:39;6.00;99.90
14057;DHT22;7103;54.300;10.180;2024-01-27T06:13:06;6.10;99.90
14057;DHT22;7103;54.300;10.180;2024-01-27T06:15:33;6.10;99.90
14057;DHT22;7103;54.300;10.180;2024-01-27T06:18:00;6.20;99.90
14057;DHT22;7103;54.300;10.180;2024-01-27T06:20:27;6.30;99.90
14057;DHT22;7103;54.300;10.180;2024-01-27T06:22:54;6.30;99.90
14057;DHT22;7103;54.300;10.180;2024-01-27T06:25:21;6.30;99.90
14057;DHT22;7103;54.300;10.180;2024-01-27T06:27:51;6.20;99.90
14057;DHT22;7103;54.300;10.180;2024-01-27T06:30:18;6.20;99.90
14057;DHT22;7103;54.300;10.180;2024-01-27T06:32:46;6.20;99.90
14057;DHT22;7103;54.300;10.180;2024-01-27T06:35:13;6.10;99.90
14057;DHT22;7103;54.300;10.180;2024-01-27T06:37:40;6.20;99.90
14057;DHT22;7103;54.300;10.180;2024-01-27T06:40:07;6.20;99.90
14057;DHT22;7103;54.300;10.180;2024-01-27T06:42:36;6.10;99.90
14057;DHT22;7103;54.300;10.180;2024-01-27T06:45:03;6.20;99.90
14057;DHT22;7103;54.300;10.180;2024-01-27T06:47:30;6.20;99.90
14057;DHT22;7103;54.300;10.180;2024-01-27T06:49:57;6.20;99.90
14057;DHT22;7103;54.300;10.180;2024-01-27T06:52:24;6.20;99.90
14057;DHT22;7103;54.300;10.180;2024-01-27T06:54:50;6.10;99.90
14057;DHT22;7103;54.300;10.180;2024-01-27T06:57:19;6.10;99.90
14057;DHT22;7103;54.300;10.180;2024-01-27T06:59:50;6.10;99.90
14057;DHT22;7103;54.300;10.180;2024-01-27T07:02:25;6.10;99.90
14057;DHT22;7103;54.300;10.180;2024-01-27T07:04:55;6.20;99.90
14057;DHT22;7103;54.300;10.180;2024-01-27T07:07:26;6.10;99.90
14057;DHT22;7103;54.300;10.180;2024-01-27T07:09:54;6.00;99.90
14057;DHT22;7103;54.300;10.180;2024-01-27T07:12:22;6.00;99.90
14057;DHT22;7103;54.300;10.180;2024-01-27T07:14:49;6.00;99.90
14057;DHT22;7103;54.300;10.180;2024-01-27T07:17:15;5.90;99.90
14057;DHT22;7103;54.300;10.180;2024-01-27T07:19:42;5.80;99.90
14057;DHT22;7103;54.300;10.180;2024-01-27T07:22:09;5.70;99.90
14057;DHT22;7103;54.300;10.180;2024-01-27T07:24:36;5.70;99.90
14057;DHT22;7103;54.300;10.180;2024-01-27T07:27:03;5.60;99.90
14057;DHT22;7103;54.300;10.180;2024-01-27T07:29:30;5.50;99.90
14057;DHT22;7103;54.300;10.180;2024-01-27T07:31:57;5.50;99.90
14057;DHT22;7103;54.300;10.180;2024-01-27T07:34:24;5.60;99.90
14057;DHT22;7103;54.300;10.180;2024-01-27T07:36:51;5.50;99.90
14057;DHT22;7103;54.300;10.180;2024-01-27T07:39:18;5.50;99.90
14057;DHT22;7103;54.300;10.180;2024-01-27T07:41:45;5.60;99.90
14057;DHT22;7103;54.300;10.180;2024-01-27T07:44:14;5.60;99.90
14057;DHT22;7103;54.300;10.180;2024-01-27T07:46:42;5.70;99.90
14057;DHT22;7103;54.300;10.180;2024-01-27T07:49:09;5.70;99.90
14057;DHT22;7103;54.300;10.180;2024-01-27T07:51:39;5.70;99.90
14057;DHT22;7103;54.300;10.180;2024-01-27T07:54:06;5.70;99.90
14057;DHT22;7103;54.300;10.180;2024-01-27T07:56:33;5.80;99.90
14057;DHT22;7103;54.300;10.180;2024-01-27T07:59:00;5.70;99.90
14057;DHT22;7103;54.300;10.180;2024-01-27T08:01:27;5.70;99.90
14057;DHT22;7103;54.300;10.180;2024-01-27T08:03:53;5.70;99.90
14057;DHT22;7103;54.300;10.180;2024-01-27T08:06:29;5.60;99.90
14057;DHT22;7103;54.300;10.180;2024-01-27T08:08:56;5.70;99.90
14057;DHT22;7103;54.300;10.180;2024-01-27T08:11:23;5.80;99.90
14057;DHT22;7103;54.300;10.180;2024-01-27T08:13:51;5.80;99.90
14057;DHT22;7103;54.300;10.180;2024-01-27T08:16:18;5.70;99.90
14057;DHT22;7103;54.300;10.180;2024-01-27T08:18:45;5.70;99.90
14057;DHT22;7103;54.300;10.180;2024-01-27T08:21:14;5.70;99.90
14057;DHT22;7103;54.300;10.180;2024-01-27T08:23:41;5.80;99.90
14057;DHT22;7103;54.300;10.180;2024-01-27T08:26:08;5.80;99.90
14057;DHT22;7103;54.300;10.180;2024-01-27T08:28:35;6.00;99.90
14057;DHT22;7103;54.300;10.180;2024-01-27T08:31:02;5.90;99.90
14057;DHT22;7103;54.300;10.180;2024-01-27T08:33:29;5.90;99.90
14057;DHT22;7103;54.300;10.180;2024-01-27T08:35:56;5.80;99.90
14057;DHT22;7103;54.300;10.180;2024-01-27T08:38:23;5.90;99.90
14057;DHT22;7103;54.300;10.180;2024-01-27T08:40:50;5.90;99.90
14057;DHT22;7103;54.300;10.180;2024-01-27T08:43:17;5.90;99.90
14057;DHT22;7103;54.300;10.180;2024-01-27T08:45:44;6.00;99.90
14057;DHT22;7103;54.300;10.180;2024-01-27T08:48:10;5.90;99.90
14057;DHT22;7103;54.300;10.180;2024-01-27T08:50:38;6.00;99.90
14057;DHT22;7103;54.300;10.180;2024-01-27T08:53:05;6.00;99.90
14057;DHT22;7103;54.300;10.180;2024-01-27T08:55:32;6.10;99.90
14057;DHT22;7103;54.300;10.180;2024-01-27T08:57:59;6.20;99.90
14057;DHT22;7103;54.300;10.180;2024-01-27T09:00:26;6.10;99.90
14057;DHT22;7103;54.300;10.180;2024-01-27T09:02:53;6.20;99.90
14057;DHT22;7103;54.300;10.180;2024-01-27T09:05:20;6.20;99.90
14057;DHT22;7103;54.300;10.180;2024-01-27T09:07:47;6.30;99.90
14057;DHT22;7103;54.300;10.180;2024-01-27T09:10:14;6.30;99.90
14057;DHT22;7103;54.300;10.180;2024-01-27T09:12:42;6.40;99.90
14057;DHT22;7103;54.300;10.180;2024-01-27T09:15:10;6.40;99.90
14057;DHT22;7103;54.300;10.180;2024-01-27T09:17:37;6.50;99.90
14057;DHT22;7103;54.300;10.180;2024-01-27T09:20:04;6.40;99.90
14057;DHT22;7103;54.300;10.180;2024-01-27T09:22:31;6.50;99.90
14057;DHT22;7103;54.300;10.180;2024-01-27T09:24:58;6.60;99.90
14057;DHT22;7103;54.300;10.180;2024-01-27T09:27:25;6.60;99.90
14057;DHT22;7103;54.300;10.180;2024-01-27T09:29:52;6.60;99.90
14057;DHT22;7103;54.300;10.180;2024-01-27T09:32:19;6.60;99.90
14057;DHT22;7103;54.300;10.180;2024-01-27T09:34:46;6.80;99.90
14057;DHT22;7103;54.300;10.180;2024-01-27T09:37:13;6.90;99.90
14057;DHT22;7103;54.300;10.180;2024-01-27T09:39:40;7.00;99.90
14057;DHT22;7103;54.300;10.180;2024-01-27T09:42:07;7.00;99.90
14057;DHT22;7103;54.300;10.180;2024-01-27T09:44:35;7.10;99.90
14057;DHT22;7103;54.300;10.180;2024-01-27T09:47:02;7.20;99.90
14057;DHT22;7103;54.300;10.180;2024-01-27T09:49:31;7.20;99.90
14057;DHT22;7103;54.300;10.180;2024-01-27T09:51:59;7.40;99.90
14057;DHT22;7103;54.300;10.180;2024-01-27T09:54:26;7.30;99.90
14057;DHT22;7103;54.300;10.180;2024-01-27T09:56:54;7.40;99.90
14057;DHT22;7103;54.300;10.180;2024-01-27T09:59:23;7.40;99.90
14057;DHT22;7103;54.300;10.180;2024-01-27T10:01:52;7.50;99.90
14057;DHT22;7103;54.300;10.180;2024-01-27T10:04:20;7.60;99.90
14057;DHT22;7103;54.300;10.180;2024-01-27T10:06:48;7.70;99.90
14057;DHT22;7103;54.300;10.180;2024-01-27T10:09:17;7.70;99.90
14057;DHT22;7103;54.300;10.180;2024-01-27T10:11:48;7.80;99.90
14057;DHT22;7103;54.300;10.180;2024-01-27T10:14:15;8.00;99.90
14057;DHT22;7103;54.300;10.180;2024-01-27T10:16:45;7.80;99.90
14057;DHT22;7103;54.300;10.180;2024-01-27T10:19:18;7.70;99.90
14057;DHT22;7103;54.300;10.180;2024-01-27T10:21:46;7.60;99.90
14057;DHT22;7103;54.300;10.180;2024-01-27T10:24:14;7.60;99.90
14057;DHT22;7103;54.300;10.180;2024-01-27T10:26:41;7.70;99.90
14057;DHT22;7103;54.300;10.180;2024-01-27T10:29:08;7.60;99.90
14057;DHT22;7103;54.300;10.180;2024-01-27T10:31:36;7.60;99.90
14057;DHT22;7103;54.300;10.180;2024-01-27T10:34:04;7.70;99.90
14057;DHT22;7103;54.300;10.180;2024-01-27T10:36:39;7.70;99.90
14057;DHT22;7103;54.300;10.180;2024-01-27T10:39:21;7.70;99.90
14057;DHT22;7103;54.300;10.180;2024-01-27T10:41:49;7.80;99.90
14057;DHT22;7103;54.300;10.180;2024-01-27T10:44:17;7.80;99.90
14057;DHT22;7103;54.300;10.180;2024-01-27T10:46:47;7.80;99.90
14057;DHT22;7103;54.300;10.180;2024-01-27T10:49:16;7.80;99.90
14057;DHT22;7103;54.300;10.180;2024-01-27T10:51:54;7.90;99.90
14057;DHT22;7103;54.300;10.180;2024-01-27T10:54:26;7.90;99.90
14057;DHT22;7103;54.300;10.180;2024-01-27T10:56:56;7.90;99.90
14057;DHT22;7103;54.300;10.180;2024-01-27T10:59:27;8.00;99.90
14057;DHT22;7103;54.300;10.180;2024-01-27T11:01:54;7.90;99.90
14057;DHT22;7103;54.300;10.180;2024-01-27T11:04:23;7.90;99.90
14057;DHT22;7103;54.300;10.180;2024-01-27T11:06:52;8.00;99.90
14057;DHT22;7103;54.300;10.180;2024-01-27T11:09:21;8.20;99.90
14057;DHT22;7103;54.300;10.180;2024-01-27T11:11:48;8.10;99.90
14057;DHT22;7103;54.300;10.180;2024-01-27T11:14:16;8.10;99.90
14057;DHT22;7103;54.300;10.180;2024-01-27T11:16:43;8.10;99.90
14057;DHT22;7103;54.300;10.180;2024-01-27T11:19:17;8.00;99.90
14057;DHT22;7103;54.300;10.180;2024-01-27T11:21:45;8.00;99.90
14057;DHT22;7103;54.300;10.180;2024-01-27T11:24:15;7.90;99.90
14057;DHT22;7103;54.300;10.180;2024-01-27T11:26:43;8.00;99.90
14057;DHT22;7103;54.300;10.180;2024-01-27T11:29:10;8.00;96.70
14057;DHT22;7103;54.300;10.180;2024-01-27T11:31:48;8.10;99.90
14057;DHT22;7103;54.300;10.180;2024-01-27T11:34:15;8.10;94.60
14057;DHT22;7103;54.300;10.180;2024-01-27T11:36:45;8.10;87.40
14057;DHT22;7103;54.300;10.180;2024-01-27T11:39:29;8.10;87.90
14057;DHT22;7103;54.300;10.180;2024-01-27T11:42:09;8.10;86.80
14057;DHT22;7103;54.300;10.180;2024-01-27T11:44:39;8.20;87.30
14057;DHT22;7103;54.300;10.180;2024-01-27T11:47:17;8.30;81.20
14057;DHT22;7103;54.300;10.180;2024-01-27T11:49:54;8.40;78.00
14057;DHT22;7103;54.300;10.180;2024-01-27T11:52:22;8.40;63.70
14057;DHT22;7103;54.300;10.180;2024-01-27T11:54:59;8.40;48.30
14057;DHT22;7103;54.300;10.180;2024-01-27T11:57:26;8.30;37.30
14057;DHT22;7103;54.300;10.180;2024-01-27T11:59:54;8.40;33.00
14057;DHT22;7103;54.300;10.180;2024-01-27T12:02:22;8.40;26.50
14057;DHT22;7103;54.300;10.180;2024-01-27T12:04:49;8.40;21.20
14057;DHT22;7103;54.300;10.180;2024-01-27T12:07:17;8.40;20.80
14057;DHT22;7103;54.300;10.180;2024-01-27T12:09:50;8.40;21.20
14057;DHT22;7103;54.300;10.180;2024-01-27T12:12:17;8.50;13.10
14057;DHT22;7103;54.300;10.180;2024-01-27T12:14:49;8.40;5.80
14057;DHT22;7103;54.300;10.180;2024-01-27T12:17:17;8.50;6.80
14057;DHT22;7103;54.300;10.180;2024-01-27T12:19:50;8.50;3.20
14057;DHT22;7103;54.300;10.180;2024-01-27T12:22:29;8.60;2.90
14057;DHT22;7103;54.300;10.180;2024-01-27T12:25:08;8.70;1.60
14057;DHT22;7103;54.300;10.180;2024-01-27T12:27:36;8.80;1.00
14057;DHT22;7103;54.300;10.180;2024-01-27T12:30:03;8.70;1.00
14057;DHT22;7103;54.300;10.180;2024-01-27T12:32:31;8.60;1.00
14057;DHT22;7103;54.300;10.180;2024-01-27T12:34:58;8.60;1.00
14057;DHT22;7103;54.300;10.180;2024-01-27T12:37:27;8.60;1.00
14057;DHT22;7103;54.300;10.180;2024-01-27T12:39:54;8.70;1.00
14057;DHT22;7103;54.300;10.180;2024-01-27T12:42:21;8.60;1.00
14057;DHT22;7103;54.300;10.180;2024-01-27T12:44:49;8.50;1.00
14057;DHT22;7103;54.300;10.180;2024-01-27T12:47:16;8.40;1.00
14057;DHT22;7103;54.300;10.180;2024-01-27T12:49:43;8.30;1.00
14057;DHT22;7103;54.300;10.180;2024-01-27T12:52:10;8.30;1.00
14057;DHT22;7103;54.300;10.180;2024-01-27T12:54:37;8.20;1.00
14057;DHT22;7103;54.300;10.180;2024-01-27T12:57:04;8.20;1.00
14057;DHT22;7103;54.300;10.180;2024-01-27T12:59:34;8.40;1.00
14057;DHT22;7103;54.300;10.180;2024-01-27T13:02:01;8.30;1.00
14057;DHT22;7103;54.300;10.180;2024-01-27T13:04:28;8.20;1.00
14057;DHT22;7103;54.300;10.180;2024-01-27T13:06:55;8.20;1.00
14057;DHT22;7103;54.300;10.180;2024-01-27T13:09:22;8.20;1.00
14057;DHT22;7103;54.300;10.180;2024-01-27T13:11:49;8.00;1.00
14057;DHT22;7103;54.300;10.180;2024-01-27T13:14:16;8.00;1.00
14057;DHT22;7103;54.300;10.180;2024-01-27T13:16:45;7.90;1.00
14057;DHT22;7103;54.300;10.180;2024-01-27T13:19:12;7.90;1.00
14057;DHT22;7103;54.300;10.180;2024-01-27T13:21:39;7.90;1.00
14057;DHT22;7103;54.300;10.180;2024-01-27T13:24:07;7.90;1.00
14057;DHT22;7103;54.300;10.180;2024-01-27T13:26:35;7.90;1.00
14057;DHT22;7103;54.300;10.180;2024-01-27T13:29:05;7.70;1.00
14057;DHT22;7103;54.300;10.180;2024-01-27T13:31:33;7.70;1.00
14057;DHT22;7103;54.300;10.180;2024-01-27T13:34:00;7.60;1.00
14057;DHT22;7103;54.300;10.180;2024-01-27T13:36:32;7.60;1.00
14057;DHT22;7103;54.300;10.180;2024-01-27T13:39:00;7.60;1.00
14057;DHT22;7103;54.300;10.180;2024-01-27T13:41:28;7.70;1.00
14057;DHT22;7103;54.300;10.180;2024-01-27T13:43:54;7.70;1.00
14057;DHT22;7103;54.300;10.180;2024-01-27T13:46:21;7.60;1.00
14057;DHT22;7103;54.300;10.180;2024-01-27T13:48:51;7.60;1.00
14057;DHT22;7103;54.300;10.180;2024-01-27T13:51:19;7.60;1.00
14057;DHT22;7103;54.300;10.180;2024-01-27T13:53:46;7.60;2.10
14057;DHT22;7103;54.300;10.180;2024-01-27T13:56:14;7.70;5.30
14057;DHT22;7103;54.300;10.180;2024-01-27T13:58:42;7.70;4.40
14057;DHT22;7103;54.300;10.180;2024-01-27T14:01:09;7.80;1.00
14057;DHT22;7103;54.300;10.180;2024-01-27T14:03:36;7.80;1.00
14057;DHT22;7103;54.300;10.180;2024-01-27T14:06:05;7.70;1.00
14057;DHT22;7103;54.300;10.180;2024-01-27T14:08:33;7.80;1.00
14057;DHT22;7103;54.300;10.180;2024-01-27T14:11:00;7.70;1.00
14057;DHT22;7103;54.300;10.180;2024-01-27T14:13:27;7.70;1.00
14057;DHT22;7103;54.300;10.180;2024-01-27T14:15:54;7.80;1.00
14057;DHT22;7103;54.300;10.180;2024-01-27T14:18:21;7.60;1.00
14057;DHT22;7103;54.300;10.180;2024-01-27T14:20:49;7.60;9.10
14057;DHT22;7103;54.300;10.180;2024-01-27T14:23:17;7.60;4.90
14057;DHT22;7103;54.300;10.180;2024-01-27T14:25:44;7.50;4.00
14057;DHT22;7103;54.300;10.180;2024-01-27T14:28:14;7.50;8.30
14057;DHT22;7103;54.300;10.180;2024-01-27T14:30:41;7.40;12.30
14057;DHT22;7103;54.300;10.180;2024-01-27T14:33:14;7.30;18.50
14057;DHT22;7103;54.300;10.180;2024-01-27T14:35:45;7.40;20.20
14057;DHT22;7103;54.300;10.180;2024-01-27T14:38:12;7.40;21.30
14057;DHT22;7103;54.300;10.180;2024-01-27T14:40:40;7.40;20.30
14057;DHT22;7103;54.300;10.180;2024-01-27T14:43:06;7.40;20.20
14057;DHT22;7103;54.300;10.180;2024-01-27T14:45:38;7.30;35.40
14057;DHT22;7103;54.300;10.180;2024-01-27T14:48:05;7.30;44.90
14057;DHT22;7103;54.300;10.180;2024-01-27T14:50:33;7.30;49.00
14057;DHT22;7103;54.300;10.180;2024-01-27T14:52:59;7.30;57.90
14057;DHT22;7103;54.300;10.180;2024-01-27T14:55:32;7.30;58.50
14057;DHT22;7103;54.300;10.180;2024-01-27T14:58:00;7.30;65.10
14057;DHT22;7103;54.300;10.180;2024-01-27T15:00:28;7.40;77.20
14057;DHT22;7103;54.300;10.180;2024-01-27T15:02:55;7.30;71.50
14057;DHT22;7103;54.300;10.180;2024-01-27T15:05:22;7.30;69.90
14057;DHT22;7103;54.300;10.180;2024-01-27T15:07:49;7.30;75.50
14057;DHT22;7103;54.300;10.180;2024-01-27T15:10:16;7.40;72.40
14057;DHT22;7103;54.300;10.180;2024-01-27T15:12:43;7.40;67.20
14057;DHT22;7103;54.300;10.180;2024-01-27T15:15:10;7.40;70.40
14057;DHT22;7103;54.300;10.180;2024-01-27T15:17:36;7.40;64.80
14057;DHT22;7103;54.300;10.180;2024-01-27T15:20:04;7.40;75.70
14057;DHT22;7103;54.300;10.180;2024-01-27T15:22:31;7.40;69.00
14057;DHT22;7103;54.300;10.180;2024-01-27T15:24:58;7.40;75.70
14057;DHT22;7103;54.300;10.180;2024-01-27T15:27:25;7.40;66.20
14057;DHT22;7103;54.300;10.180;2024-01-27T15:29:52;7.30;76.90
14057;DHT22;7103;54.300;10.180;2024-01-27T15:32:22;7.30;77.00
14057;DHT22;7103;54.300;10.180;2024-01-27T15:34:50;7.30;77.20
14057;DHT22;7103;54.300;10.180;2024-01-27T15:37:18;7.30;76.80
14057;DHT22;7103;54.300;10.180;2024-01-27T15:39:45;7.30;76.90
14057;DHT22;7103;54.300;10.180;2024-01-27T15:42:13;7.20;78.60
14057;DHT22;7103;54.300;10.180;2024-01-27T15:44:40;7.20;93.60
14057;DHT22;7103;54.300;10.180;2024-01-27T15:47:07;7.20;94.30
14057;DHT22;7103;54.300;10.180;2024-01-27T15:49:34;7.20;94.00
14057;DHT22;7103;54.300;10.180;2024-01-27T15:52:02;7.20;93.50